EBOSEBCI

Guest
Details From EBOS - Oostende
To EBCI - Brussels South - Charleroi
Flight Number -
Tags generated
Created
Modified
Stats Distance 75 nm / 138 km
Max Altitude 3,800 ft / 1,158 m
Waypoints 3
Social Downloads 3
Likes 0
Share VATSIM

Download

Looking for another format? Having issues loading an existing format? Contact us
Advertisement - Login to hide

Notes

Basic altitude profile: - Ascent Rate: 2500ft/min - Ascent Speed: 250kts - Cruise Altitude: 35000ft - Cruise Speed: 420kts - Descent Rate: 1500ft/min - Descent Speed: 250kts Options: - Use NATs: yes - Use PACOTS: yes - Use low airways: yes - Use high airways: yes

Route

EBOS SISGA EBCI

ID Type Via Altitude Latitude Longitude Leg Dist Tot Dist Heading (true) Name
O EBOS APT - 0 ft / 0 m 51.19997˚ 2.87501˚ - 0 nm - Oostende
SISGA FIX - 3,800 ft / 1,158 m 50.61797˚ 4.05658˚ 56 nm 56 nm 128° / 128° -
O EBCI APT - 0 ft / 0 m 50.45995˚ 4.45312˚ 17 nm 74 nm 122° / 122° Brussels South - Charleroi

Altitude Profile

Advertisement - Login to hide

EBOS

Details ICAO EBOS (OST)
Name Oostende
Region Belgium
Timezone Europe/Brussels (UTC+2.0)
Stats Elevation 13 ft / 4 m (AMSL)
Location 51.199967° 2.875008°
Runways 1
Magnetic Variation 0.649° E

METAR

EBOS 201720Z 01014KT 5000 BR FEW006 13/10 Q1020 TEMPO 4500 BR BKN006

Decode

TAF

TAF EBOS 201120Z 2012/2118 02010KT 9999 SCT020 PROB30 TEMPO 2022/2024 4500 SHRA PROB30 TEMPO 2105/2108 4500 SHRA TEMPO 2102/2107 3000 BR PROB30 TEMPO 2104/2107 1200 BCFG PROB30 TEMPO 2115/2121 VRB15G25KT 4500 SHRA TSRA

Decode

Departure Runways

ID Width Length Bearing (true) Bearing (mag) Surface Threshold Offset Overrun Length
08 148 ft / 45 m 10,515 ft / 3,205 m 76.36° 75.71° Asphalt 984 ft / 300 m 0 ft / 0 m
26 148 ft / 45 m 10,515 ft / 3,205 m 256.39° 255.74° Asphalt 1,362 ft / 415 m 0 ft / 0 m

EBCI

Details ICAO EBCI (CRL)
Name Brussels South - Charleroi
Region Belgium
Timezone Europe/Brussels (UTC+2.0)
Stats Elevation 614 ft / 187 m (AMSL)
Location 50.459947° 4.453125°
Runways 1
Magnetic Variation 1.192° E

METAR

EBCI 201720Z 12005KT 030V150 9999 FEW010 SCT040CB 15/13 Q1019 RETS TEMPO 3000 TSRA

Decode

TAF

TAF EBCI 201120Z 2012/2118 08006KT 9999 FEW040 TEMPO 2018/2021 VRB15G25KT 3500 SHRA TSRA PROB40 TEMPO 2101/2105 4500 SHRA TEMPO 2102/2107 3000 BR PROB30 TEMPO 2104/2107 1200 BCFG PROB30 TEMPO 2115/2121 VRB15G25KT 4500 SHRA TSRA

Decode

Destination Runways

ID Width Length Bearing (true) Bearing (mag) Surface Threshold Offset Overrun Length
07 148 ft / 45 m 8,374 ft / 2,552 m 65.53° 64.34° Asphalt 1,476 ft / 450 m 0 ft / 0 m
25 148 ft / 45 m 8,374 ft / 2,552 m 245.55° 244.36° Asphalt 0 ft / 0 m 0 ft / 0 m

Approach Navaids

Runway Type Ident Frequency Range Bearing (true) Bearing (mag) Slope Elevation
25 Localiser IGC 110.90 MHz 18 nm / 33 km 245.54° 244.35° - 614 ft / 187 m (AMSL)
25 Glidescope IGC 110.90 MHz 10 nm / 19 km 245.54° 244.35° 3.00° 614 ft / 187 m (AMSL)

Popular Alternatives